Flight Track Log - Related Links

Times and Time Zones

All times are in EDT time to prevent confusion due to time zone crossing. See the C-GRIR flight status page for this flight to view local times or setup timezone preferences in your user account.

Time Position Orientation Groundspeed Altitude Reporting Facility
EDT Latitude Longitude Course Direction KTS MPH feet Rate Location/Type
Mon 02:01:30 PM 53.5833 -77.7500 149° Southeast 140 161 3,300  Level Montreal Center
Mon 02:02:30 PM 53.5500 -77.7167 149° Southeast 140 161 4,500 1,200 Climbing Montreal Center
Mon 02:03:30 PM 53.5167 -77.6833 149° Southeast 150 173 5,700 1,350 Climbing Montreal Center
Mon 02:04:30 PM 53.4833 -77.6333 138° Southeast 160 184 7,200 1,400 Climbing Montreal Center
Mon 02:05:30 PM 53.4500 -77.5500 124° Southeast 170 196 8,500 1,250 Climbing Montreal Center
Mon 02:06:30 PM 53.4167 -77.5167 149° Southeast 180 207 9,700 1,250 Climbing Montreal Center
Mon 02:07:30 PM 53.3667 -77.4667 149° Southeast 190 219 11,000 1,250 Climbing Montreal Center
Mon 02:08:30 PM 53.3167 -77.4000 141° Southeast 190 219 12,200 1,350 Climbing Montreal Center
Mon 02:09:30 PM 53.2667 -77.3667 158° South 190 219 13,700 1,050 Climbing Montreal Center
Mon 02:10:30 PM 53.2333 -77.3167 138° Southeast 190 219 14,300 800 Climbing Montreal Center
Mon 02:11:30 PM 53.1833 -77.2833 158° South 190 219 15,300 950 Climbing Montreal Center
Mon 02:12:30 PM 53.1333 -77.2333 149° Southeast 190 219 16,200 800 Climbing Montreal Center
Mon 02:13:30 PM 53.0833 -77.1667 141° Southeast 190 219 16,900 750 Climbing Montreal Center
Mon 02:14:30 PM 53.0500 -77.1333 149° Southeast 200 230 17,700 600 Climbing Montreal Center
Mon 02:15:30 PM 53.0000 -77.0833 149° Southeast 200 230 18,100 600 Climbing Montreal Center
Mon 02:16:30 PM 52.9500 -77.0500 158° South 200 230 18,900 650 Climbing Montreal Center
Mon 02:17:30 PM 52.9000 -77.0000 149° Southeast 210 242 19,400 500 Climbing Montreal Center
Mon 02:18:30 PM 52.8333 -76.9667 163° South 210 242 19,900 650 Climbing Montreal Center
Mon 02:19:30 PM 52.7833 -76.9167 149° Southeast 210 242 20,700 700 Climbing Montreal Center
Mon 02:20:30 PM 52.7333 -76.8500 141° Southeast 200 230 21,300 467 Climbing Montreal Center
Mon 02:22:00 PM 52.6570 -76.7459 140° Southeast  Level FlightAware Approximate
Mon 02:22:30 PM 52.6500 -76.7667 140° Southeast 200 230 22,100  Level Montreal Center
Mon 02:23:30 PM 52.6000 -76.7167 149° Southeast 210 242 22,500 400 Climbing Montreal Center
Mon 02:24:30 PM 52.5500 -76.6500 141° Southeast 210 242 22,900 300 Climbing Montreal Center
Mon 02:25:30 PM 52.4833 -76.6333 171° South 220 253 23,100 50 Climbing Montreal Center
Mon 02:26:30 PM 52.4333 -76.5667 141° Southeast 230 265 23,000 -50 Descending Montreal Center
Mon 02:27:30 PM 52.3667 -76.5167 155° Southeast 240 276 23,000  Level Montreal Center
Mon 02:28:30 PM 52.3167 -76.4667 149° Southeast 250 288 23,000  Level Montreal Center
Mon 02:29:30 PM 52.2667 -76.4000 141° Southeast 240 276 23,000 -50 Level Montreal Center
Mon 02:30:30 PM 52.2000 -76.3500 155° Southeast 240 276 22,900 -50 Descending Montreal Center
Mon 02:31:30 PM 52.1333 -76.3000 155° Southeast 240 276 22,900 50 Level Montreal Center
Mon 02:32:30 PM 52.0833 -76.2333 141° Southeast 240 276 23,000  Climbing Montreal Center
Mon 02:33:30 PM 52.0167 -76.1833 155° Southeast 240 276 22,900 -50 Descending Montreal Center
Mon 02:34:30 PM 51.9667 -76.1333 148° Southeast 240 276 22,900  Level Montreal Center
Mon 02:35:30 PM 51.9000 -76.0667 148° Southeast 240 276 22,900  Level Montreal Center
Mon 02:37:00 PM 51.8159 -75.9820 148° Southeast  Level FlightAware Approximate
Mon 02:38:30 PM 51.7167 -75.9167 148° Southeast 240 276 22,900  Level Montreal Center
Mon 02:39:30 PM 51.6500 -75.8500 148° Southeast 240 276 22,900  Level Montreal Center
Mon 02:40:30 PM 51.6000 -75.8333 168° South 240 276 22,900  Level Montreal Center
Mon 02:41:30 PM 51.5333 -75.7833 155° Southeast 240 276 22,900  Level Montreal Center
Mon 02:42:30 PM 51.4833 -75.7167 140° Southeast 240 276 22,900  Level Montreal Center
Mon 02:43:30 PM 51.4167 -75.6667 155° Southeast 240 276 22,900  Level Montreal Center
Mon 02:44:00 PM 51.4225 -75.5911 148° Southeast  Level FlightAware Approximate
Mon 02:44:30 PM 51.3667 -75.6167 148° Southeast 240 276 22,900  Level Montreal Center
Mon 02:45:30 PM 51.3000 -75.5667 155° Southeast 240 276 22,900  Level Montreal Center
Mon 02:46:30 PM 51.2500 -75.5000 140° Southeast 240 276 22,900  Level Montreal Center
Mon 02:47:30 PM 51.1833 -75.4500 155° Southeast 240 276 22,900  Level Montreal Center
Mon 02:48:30 PM 51.1333 -75.4000 148° Southeast 240 276 22,900  Level Montreal Center
Mon 02:49:30 PM 51.0667 -75.3500 155° Southeast 240 276 22,900  Level Montreal Center
Mon 02:50:30 PM 51.0167 -75.3000 148° Southeast 240 276 22,900  Level Montreal Center
Mon 02:51:30 PM 50.9667 -75.2500 148° Southeast 240 276 22,900  Level Montreal Center
Mon 02:52:30 PM 50.9000 -75.1833 148° Southeast 240 276 22,900  Level Montreal Center
Mon 02:53:30 PM 50.8500 -75.1333 148° Southeast 240 276 22,900  Level Montreal Center
Mon 02:54:30 PM 50.7833 -75.0833 155° Southeast 240 276 22,900  Level Montreal Center
Mon 02:55:30 PM 50.7333 -75.0333 148° Southeast 240 276 22,900  Level Montreal Center
Mon 02:57:00 PM 50.6509 -74.9510 148° Southeast  Level FlightAware Approximate
Mon 02:57:30 PM 50.6167 -74.9333 148° Southeast 240 276 22,900  Level Montreal Center
Mon 02:58:30 PM 50.5333 -74.8833 159° South 240 276 22,900  Level Montreal Center
Mon 02:59:30 PM 50.4833 -74.8500 157° South 240 276 22,900  Level Montreal Center
Mon 03:00:30 PM 50.4167 -74.8000 154° Southeast 240 276 22,900  Level Montreal Center
Mon 03:02:00 PM 50.3351 -74.7161 147° Southeast  Level FlightAware Approximate
Mon 03:02:30 PM 50.3000 -74.7000 147° Southeast 240 276 22,900  Level Montreal Center
Mon 03:03:30 PM 50.2500 -74.6500 147° Southeast 240 276 22,900  Level Montreal Center
Mon 03:04:30 PM 50.1833 -74.6000 154° Southeast 240 276 22,900  Level Montreal Center
Mon 03:05:30 PM 50.1333 -74.5500 147° Southeast 240 276 22,900  Level Montreal Center
Mon 03:06:30 PM 50.0667 -74.5000 154° Southeast 240 276 22,900  Level Montreal Center
Mon 03:07:30 PM 50.0000 -74.4500 154° Southeast 240 276 22,900  Level Montreal Center
Mon 03:08:30 PM 49.9500 -74.4000 147° Southeast 240 276 22,900  Level Montreal Center
Mon 03:09:30 PM 49.8833 -74.3500 154° Southeast 240 276 22,900  Level Montreal Center
Mon 03:10:30 PM 49.8333 -74.3000 147° Southeast 240 276 22,900 50 Level Montreal Center
Mon 03:11:30 PM 49.7833 -74.2500 147° Southeast 230 265 23,000  Climbing Montreal Center
Mon 03:12:30 PM 49.7167 -74.2000 154° Southeast 230 265 22,900  Descending Montreal Center
Mon 03:13:30 PM 49.6500 -74.1500 154° Southeast 230 265 23,000  Climbing Montreal Center
Mon 03:14:30 PM 49.5833 -74.1000 154° Southeast 240 276 22,900 -50 Descending Montreal Center
Mon 03:15:30 PM 49.5333 -74.0500 147° Southeast 240 276 22,900  Level Montreal Center
Mon 03:16:30 PM 49.4667 -74.0333 171° South 240 276 22,900  Level Montreal Center
Mon 03:17:30 PM 49.4167 -73.9833 147° Southeast 240 276 22,900  Level Montreal Center
Mon 03:18:30 PM 49.3500 -73.9333 154° Southeast 240 276 22,900  Level Montreal Center
Mon 03:19:30 PM 49.3000 -73.8833 147° Southeast 240 276 22,900  Level Montreal Center
Mon 03:20:30 PM 49.2333 -73.8333 154° Southeast 240 276 22,900  Level Montreal Center
Mon 03:21:30 PM 49.1833 -73.7833 147° Southeast 240 276 22,900  Level Montreal Center
Mon 03:22:30 PM 49.1167 -73.7333 154° Southeast 240 276 22,900  Level Montreal Center
Mon 03:23:30 PM 49.0667 -73.6833 147° Southeast 240 276 22,900  Level Montreal Center
Mon 03:24:30 PM 49.0000 -73.6333 154° Southeast 240 276 22,900  Level Montreal Center
Mon 03:25:30 PM 48.9333 -73.5833 154° Southeast 240 276 22,900  Level Montreal Center
Mon 03:26:30 PM 48.8833 -73.5333 147° Southeast 230 265 22,900  Level Montreal Center
Mon 03:27:30 PM 48.8167 -73.4833 154° Southeast 230 265 22,900  Level Montreal Center
Mon 03:28:30 PM 48.7667 -73.4667 168° South 230 265 22,900  Level Montreal Center
Mon 03:29:30 PM 48.7167 -73.4167 147° Southeast 230 265 22,900  Level Montreal Center
Mon 03:30:30 PM 48.6667 -73.3667 147° Southeast 230 265 22,900  Level Montreal Center
Mon 03:31:30 PM 48.6000 -73.3167 154° Southeast 230 265 22,900  Level Montreal Center
Mon 03:32:30 PM 48.5500 -73.2833 156° South 230 265 22,900  Level Montreal Center
Mon 03:33:30 PM 48.5000 -73.2333 146° Southeast 230 265 22,900  Level Montreal Center
Mon 03:34:30 PM 48.4333 -73.1833 154° Southeast 220 253 22,900  Level Montreal Center
Mon 03:35:30 PM 48.3833 -73.1667 168° South 220 253 22,900  Level Montreal Center
Mon 03:36:30 PM 48.3167 -73.1167 153° Southeast 230 265 22,900  Level Montreal Center
Mon 03:37:30 PM 48.2667 -73.0667 146° Southeast 230 265 22,900  Level Montreal Center
Mon 03:38:30 PM 48.2000 -73.0167 153° Southeast 220 253 22,900  Level Montreal Center
Mon 03:39:30 PM 48.1500 -72.9667 146° Southeast 230 265 22,900  Level Montreal Center
Mon 03:40:30 PM 48.1000 -72.9167 146° Southeast 230 265 22,900  Level Montreal Center
Mon 03:41:30 PM 48.0333 -72.9000 171° South 230 265 22,900  Level Montreal Center
Mon 03:42:30 PM 47.9833 -72.8500 146° Southeast 230 265 22,900  Level Montreal Center
Mon 03:43:30 PM 47.9333 -72.8000 146° Southeast 230 265 22,900  Level Montreal Center
Mon 03:44:30 PM 47.8833 -72.7667 156° South 230 265 22,900  Level Montreal Center
Mon 03:45:30 PM 47.8167 -72.7167 153° Southeast 230 265 22,900  Level Montreal Center
Mon 03:46:30 PM 47.7500 -72.6667 153° Southeast 230 265 22,900 -179 Level Montreal Center
Mon 03:48:00 PM 47.6764 -72.5749 140° Southeast  Level FlightAware Approximate
Mon 03:50:31 PM 47.5167 -72.5167 146° Southeast 240 276 22,000  Level Montreal Center
Mon 03:51:31 PM 47.4667 -72.4667 146° Southeast 260 299 21,400 -950 Descending Montreal Center
Mon 03:52:31 PM 47.4000 -72.4167 153° Southeast 260 299 20,100 -950 Descending Montreal Center
Mon 03:53:31 PM 47.3333 -72.3833 161° South 260 299 19,500 -1,000 Descending Montreal Center
Mon 03:54:31 PM 47.2500 -72.3000 146° Southeast 260 299 18,100 -950 Descending Montreal Center
Mon 03:55:00 PM 47.3356 -72.1522 146° Southeast  Level FlightAware Approximate
Mon 03:55:31 PM 47.1833 -72.2667 161° South 260 299 17,600  Level Montreal Center
Mon 03:56:00 PM 47.2826 -72.0991 146° Southeast  Level FlightAware Approximate
Mon 03:56:31 PM 47.1333 -72.2167 146° Southeast 270 311 16,600  Level Montreal Center
Mon 03:57:31 PM 47.0667 -72.1667 153° Southeast 260 299 15,500 -1,000 Descending Montreal Center
Mon 03:58:31 PM 47.0000 -72.1000 146° Southeast 260 299 14,600 -1,000 Descending Montreal Center
Mon 03:59:31 PM 46.9667 -72.0333 126° Southeast 260 299 13,500 -1,200 Descending Montreal Center
Mon 04:00:31 PM 46.9167 -71.9667 138° Southeast 250 288 12,200 -1,133 Descending Montreal Center
Mon 04:02:00 PM 46.8697 -71.8443 119° Southeast  Level FlightAware Approximate
Mon 04:02:31 PM 46.8333 -71.7667 119° Southeast 240 276 10,100  Level Montreal Center
Mon 04:03:31 PM 46.8000 -71.7000 126° Southeast 240 276 9,500 -950 Descending Montreal Center
Mon 04:04:31 PM 46.7833 -71.6000 104° East 240 276 8,200 -1,000 Descending Montreal Center
Mon 04:05:31 PM 46.7500 -71.5167 120° Southeast 240 276 7,500 -1,050 Descending Montreal Center
Mon 04:06:31 PM 46.7167 -71.4333 120° Southeast 220 253 6,100 -1,200 Descending Montreal Center
Mon 04:07:31 PM 46.7000 -71.3500 106° East 220 253 5,100 -950 Descending Montreal Center
Mon 04:08:31 PM 46.7000 -71.2667 90° East 200 230 4,200 -1,050 Descending Montreal Center
Mon 04:09:31 PM 46.7333 -71.2167 46° Northeast 190 219 3,000 -800 Descending Montreal Center
Mon 04:10:31 PM 46.7667 -71.2333 341° North 170 196 2,600 -700 Descending Montreal Center
Mon 04:11:31 PM 46.7667 -71.3167 270° West 140 161 1,600 -1,250 Descending Montreal Center
Mon 04:12:31 PM 46.7667 -71.3667 270° West 110 127 100 -1,500 Descending Montreal Center

Login

Don't have an account? Register now (free) for customized features, flight alerts, and more!